Time;durP1;ratioP1;P1;durP2;ratioP2;P2;SDS_P1;SDS_P2;PMS_P1;PMS_P2;Temp;Humidity;BMP_temperature;BMP_pressure;BME280_temperature;BME280_humidity;BME280_pressure;Samples;Min_cycle;Max_cycle;Signal;HPM_P1;HPM_P2
2021/07/06 00:01:00;;;;;;;6.10;2.30;;;;;;;16.01;81.93;99137.94;3550710;40;20062;-78
2021/07/06 00:03:31;;;;;;;6.25;2.60;;;;;;;15.97;81.65;99144.38;3572543;40;20087;-78
2021/07/06 00:06:01;;;;;;;6.22;2.45;;;;;;;15.93;82.76;99137.63;3549906;40;20398;-78
2021/07/06 00:08:29;;;;;;;5.63;2.35;;;;;;;15.92;83.91;99142.06;3561168;40;20442;-78
2021/07/06 00:11:00;;;;;;;5.53;2.40;;;;;;;15.90;84.82;99137.84;3575056;40;20053;-78
2021/07/06 00:13:28;;;;;;;7.03;2.40;;;;;;;15.83;84.60;99127.75;3556617;40;20065;-78
2021/07/06 00:15:56;;;;;;;6.50;2.00;;;;;;;15.85;84.12;99129.41;3553965;40;20399;-78
2021/07/06 00:18:23;;;;;;;7.95;3.50;;;;;;;15.75;84.07;99118.69;3559775;40;20057;-78
2021/07/06 00:20:54;;;;;;;9.53;2.90;;;;;;;15.76;81.66;99121.22;3563936;40;20057;-78
2021/07/06 00:23:24;;;;;;;9.68;3.58;;;;;;;15.75;82.67;99122.16;3573421;40;20844;-78
2021/07/06 00:25:51;;;;;;;8.02;3.33;;;;;;;15.68;83.19;99112.19;3556101;40;20061;-78
2021/07/06 00:28:47;;;;;;;7.17;3.47;;;;;;;15.71;82.45;99112.81;3568044;40;20053;-78
2021/07/06 00:31:19;;;;;;;7.40;2.78;;;;;;;15.67;81.43;99121.88;3556864;40;20453;-78
2021/07/06 00:33:46;;;;;;;7.50;2.90;;;;;;;15.58;82.70;99096.16;3550048;40;20050;-78
2021/07/06 00:36:15;;;;;;;5.70;2.80;;;;;;;15.60;81.88;99104.75;3564951;40;20062;-78
2021/07/06 00:38:43;;;;;;;6.40;2.97;;;;;;;15.55;84.25;99101.59;3547825;40;20115;-78
2021/07/06 00:41:12;;;;;;;8.52;3.42;;;;;;;15.53;83.08;99093.81;3565359;40;20048;-78
2021/07/06 00:43:39;;;;;;;6.60;2.88;;;;;;;15.50;82.68;99099.28;3582773;40;20139;-78
2021/07/06 00:46:07;;;;;;;6.05;3.22;;;;;;;15.51;82.97;99086.97;3555567;40;20307;-78
2021/07/06 00:48:41;;;;;;;5.97;2.75;;;;;;;15.47;81.07;99090.78;3560007;40;20050;-78
2021/07/06 00:51:09;;;;;;;7.80;3.28;;;;;;;15.41;82.22;99083.28;3556009;40;20081;-78
2021/07/06 00:53:36;;;;;;;4.95;2.33;;;;;;;15.31;83.08;99073.41;3568869;40;20448;-78
2021/07/06 00:56:08;;;;;;;7.30;3.00;;;;;;;15.35;82.69;99084.56;3559132;40;20059;-78
2021/07/06 00:58:59;;;;;;;5.63;2.30;;;;;;;15.31;80.46;99078.69;3574203;40;20111;-78
2021/07/06 01:01:35;;;;;;;5.90;2.20;;;;;;;15.19;79.41;99076.88;3570261;40;20052;-78
2021/07/06 01:04:05;;;;;;;4.72;2.15;;;;;;;15.09;79.05;99078.44;3554874;40;20082;-79
2021/07/06 01:06:32;;;;;;;6.82;2.95;;;;;;;14.90;79.64;99059.56;3565979;40;20773;-78
2021/07/06 01:09:00;;;;;;;7.57;2.40;;;;;;;14.87;81.37;99072.94;3570287;40;20065;-78
2021/07/06 01:11:29;;;;;;;5.97;2.70;;;;;;;14.79;82.98;99081.31;3575780;40;20979;-78
2021/07/06 01:13:55;;;;;;;6.22;2.63;;;;;;;14.71;82.76;99076.56;3577084;40;20053;-78
2021/07/06 01:16:26;;;;;;;6.50;2.90;;;;;;;14.70;81.75;99081.91;3568695;40;20111;-78
2021/07/06 01:18:53;;;;;;;6.30;2.85;;;;;;;14.66;81.39;99075.19;3581736;40;20283;-78
2021/07/06 01:21:21;;;;;;;6.35;2.58;;;;;;;14.68;83.89;99075.91;3567559;40;20053;-78
2021/07/06 01:23:48;;;;;;;5.25;2.30;;;;;;;14.70;84.25;99076.66;3568794;40;20061;-78
2021/07/06 01:26:18;;;;;;;6.07;2.72;;;;;;;14.73;83.51;99081.72;3561428;40;20143;-78
2021/07/06 01:28:53;;;;;;;4.70;2.38;;;;;;;14.77;83.21;99070.91;3562771;40;20532;-78
2021/07/06 01:31:21;;;;;;;6.22;2.83;;;;;;;14.77;84.10;99075.31;3556930;40;20064;-78
2021/07/06 01:33:49;;;;;;;7.40;2.95;;;;;;;14.80;84.06;99072.50;3569109;40;20045;-78
2021/07/06 01:36:18;;;;;;;8.03;2.80;;;;;;;14.79;82.91;99061.13;3573285;40;20068;-78
2021/07/06 01:39:15;;;;;;;5.90;2.38;;;;;;;14.87;81.44;99067.69;3578605;40;20279;-78
2021/07/06 01:41:44;;;;;;;5.32;2.53;;;;;;;14.83;83.75;99050.41;3559643;40;20112;-78
2021/07/06 01:44:26;;;;;;;6.40;2.75;;;;;;;14.89;82.99;99071.03;3568438;40;20069;-78
2021/07/06 01:46:53;;;;;;;7.07;2.67;;;;;;;14.84;84.30;99057.34;3564074;40;20134;-78
2021/07/06 01:49:25;;;;;;;7.63;2.83;;;;;;;14.84;82.84;99059.97;3572146;40;20064;-78
2021/07/06 01:51:52;;;;;;;4.82;2.35;;;;;;;14.78;83.52;99048.09;3571726;40;20049;-77
2021/07/06 01:54:45;;;;;;;5.93;2.70;;;;;;;14.84;82.23;99057.34;3560399;40;20056;-78
2021/07/06 01:57:14;;;;;;;6.25;2.70;;;;;;;14.81;84.11;99057.56;3562487;40;20057;-78
2021/07/06 01:59:40;;;;;;;8.93;3.70;;;;;;;14.76;83.21;99047.38;3532414;40;20535;-78
2021/07/06 02:02:07;;;;;;;6.67;3.03;;;;;;;14.78;81.67;99059.44;3556160;40;20045;-78
2021/07/06 02:04:36;;;;;;;6.78;2.90;;;;;;;14.78;80.81;99043.69;3550747;40;20135;-78
2021/07/06 02:07:04;;;;;;;5.03;2.15;;;;;;;14.72;83.75;99038.00;3570035;40;20060;-78
2021/07/06 02:09:40;;;;;;;7.35;3.08;;;;;;;14.85;82.64;99059.03;3573318;40;20068;-78
2021/07/06 02:12:09;;;;;;;6.53;3.08;;;;;;;14.82;81.32;99056.63;3548294;40;20041;-78
2021/07/06 02:14:36;;;;;;;6.55;2.95;;;;;;;14.82;82.33;99057.47;3551881;40;20061;-78
2021/07/06 02:17:05;;;;;;;5.78;2.33;;;;;;;14.86;82.31;99066.00;3570066;40;20047;-78
2021/07/06 02:19:34;;;;;;;6.70;3.05;;;;;;;14.81;81.55;99060.19;3553581;40;20074;-77
2021/07/06 02:22:03;;;;;;;8.48;3.15;;;;;;;14.77;79.47;99057.78;3565097;40;20045;-78
2021/07/06 02:24:33;;;;;;;7.40;3.08;;;;;;;14.81;80.14;99068.94;3549209;40;20422;-78
2021/07/06 02:27:02;;;;;;;7.40;3.58;;;;;;;14.75;79.03;99057.03;3562366;40;20136;-78
2021/07/06 02:29:29;;;;;;;8.15;3.30;;;;;;;14.68;79.09;99047.03;3568591;40;20576;-78
2021/07/06 02:31:59;;;;;;;6.53;3.47;;;;;;;14.69;78.86;99062.69;3550544;40;20517;-79
2021/07/06 02:34:34;;;;;;;7.80;2.90;;;;;;;14.61;79.67;99062.34;3561710;40;20284;-78
2021/07/06 02:37:02;;;;;;;10.23;3.47;;;;;;;14.54;81.09;99063.69;3557368;40;20070;-78
2021/07/06 02:39:30;;;;;;;6.78;3.05;;;;;;;14.49;81.95;99058.72;3565724;40;20513;-78
2021/07/06 02:41:57;;;;;;;8.63;3.95;;;;;;;14.44;81.30;99060.78;3547494;40;20049;-79
2021/07/06 02:44:26;;;;;;;6.53;3.10;;;;;;;14.43;80.99;99053.00;3561411;40;20062;-78
2021/07/06 02:46:54;;;;;;;6.60;2.75;;;;;;;14.41;82.84;99054.91;3566700;40;20512;-78
2021/07/06 02:49:23;;;;;;;7.57;3.35;;;;;;;14.39;80.50;99056.75;3557973;40;20074;-77
2021/07/06 02:51:50;;;;;;;7.20;3.00;;;;;;;14.35;80.62;99044.78;3551023;40;20049;-78
2021/07/06 02:54:17;;;;;;;7.80;3.38;;;;;;;14.34;81.04;99046.56;3575617;40;20057;-78
2021/07/06 02:56:48;;;;;;;7.22;3.28;;;;;;;14.39;80.32;99056.75;3575716;40;20045;-78
2021/07/06 02:59:15;;;;;;;10.18;3.78;;;;;;;14.32;81.14;99045.81;3566411;40;20054;-78
2021/07/06 03:01:42;;;;;;;9.85;2.88;;;;;;;14.25;80.75;99034.88;3574157;40;20076;-79
2021/07/06 03:04:11;;;;;;;7.43;3.73;;;;;;;14.32;81.49;99039.72;3554815;40;20318;-78
2021/07/06 03:06:38;;;;;;;6.60;3.05;;;;;;;14.25;80.94;99034.03;3537451;40;20286;-78
2021/07/06 03:09:05;;;;;;;7.40;3.40;;;;;;;14.21;81.18;99030.75;3557584;40;20052;-78
2021/07/06 03:11:35;;;;;;;7.97;3.30;;;;;;;14.30;80.48;99041.63;3553049;40;20104;-78
2021/07/06 03:14:05;;;;;;;6.03;2.80;;;;;;;14.26;81.94;99040.97;3535752;40;20065;-78
2021/07/06 03:16:33;;;;;;;6.95;3.03;;;;;;;14.19;80.92;99029.16;3568476;40;20109;-78
2021/07/06 03:19:06;;;;;;;7.20;3.47;;;;;;;14.18;81.38;99033.56;3541900;40;20042;-78
2021/07/06 03:21:33;;;;;;;6.70;3.00;;;;;;;14.17;80.16;99037.16;3551751;40;20069;-78
2021/07/06 03:24:00;;;;;;;7.50;3.70;;;;;;;14.16;80.10;99035.47;3549654;40;20069;-78
2021/07/06 03:26:28;;;;;;;12.00;3.45;;;;;;;14.15;80.00;99041.66;3566858;40;20061;-78
2021/07/06 03:28:55;;;;;;;7.05;3.10;;;;;;;14.10;80.38;99035.03;3550921;40;20069;-78
2021/07/06 03:31:31;;;;;;;8.63;3.50;;;;;;;14.12;80.13;99043.63;3561467;40;20135;-78
2021/07/06 03:34:00;;;;;;;7.85;3.13;;;;;;;14.03;80.51;99034.53;3569244;40;20533;-78
2021/07/06 03:36:29;;;;;;;8.38;3.58;;;;;;;13.97;80.18;99029.69;3559831;40;20053;-78
2021/07/06 03:38:56;;;;;;;6.13;2.95;;;;;;;13.95;80.75;99036.84;3574185;40;20082;-78
2021/07/06 03:41:22;;;;;;;9.43;3.40;;;;;;;13.96;80.57;99039.34;3567167;40;20110;-78
2021/07/06 03:43:57;;;;;;;7.70;3.05;;;;;;;13.95;80.44;99036.84;3566929;40;20299;-78
2021/07/06 03:46:27;;;;;;;6.28;3.05;;;;;;;13.96;80.21;99043.75;3570321;40;20049;-78
2021/07/06 03:49:00;;;;;;;7.03;3.30;;;;;;;13.93;80.61;99038.69;3563772;40;20068;-78
2021/07/06 03:51:26;;;;;;;6.75;2.92;;;;;;;13.86;80.57;99032.16;3540312;40;20069;-78
2021/07/06 03:53:55;;;;;;;5.80;2.65;;;;;;;13.84;81.14;99040.13;3546927;40;20061;-78
2021/07/06 03:56:22;;;;;;;7.82;3.35;;;;;;;13.85;80.88;99047.06;3541172;40;20163;-78
2021/07/06 03:58:49;;;;;;;6.30;3.13;;;;;;;13.75;80.95;99024.97;3564442;40;20048;-78
2021/07/06 04:01:16;;;;;;;7.63;2.97;;;;;;;13.83;80.61;99043.66;3548491;40;20065;-78
2021/07/06 04:03:44;;;;;;;6.70;3.30;;;;;;;13.87;80.91;99049.59;3569452;40;20081;-78
2021/07/06 04:06:15;;;;;;;;;;;;;;;13.88;80.51;99051.25;3592476;40;20053;-78
2021/07/06 04:08:42;;;;;;;6.60;2.90;;;;;;;13.81;80.67;99049.97;3551156;40;19948;-78
2021/07/06 04:11:09;;;;;;;8.10;3.22;;;;;;;13.77;80.85;99039.66;3552090;40;20812;-78
2021/07/06 04:13:38;;;;;;;8.33;3.07;;;;;;;13.79;81.57;99042.19;3565104;40;20401;-78
2021/07/06 04:16:10;;;;;;;6.85;3.28;;;;;;;13.80;81.50;99049.13;3545338;40;20037;-78
2021/07/06 04:18:39;;;;;;;6.60;3.35;;;;;;;13.76;81.01;99050.25;3566604;40;20059;-78
2021/07/06 04:21:07;;;;;;;7.55;3.33;;;;;;;13.76;81.89;99048.47;3570856;40;20048;-78
2021/07/06 04:23:35;;;;;;;9.27;3.50;;;;;;;13.71;80.65;99040.03;3587696;40;20053;-78
2021/07/06 04:26:04;;;;;;;9.88;3.55;;;;;;;13.77;81.09;99046.69;3546522;40;20051;-78
2021/07/06 04:28:35;;;;;;;10.07;3.55;;;;;;;13.72;80.61;99039.09;3570723;40;20106;-78
2021/07/06 04:31:04;;;;;;;8.30;3.40;;;;;;;13.72;81.33;99040.88;3567781;40;20109;-78
2021/07/06 04:33:31;;;;;;;6.72;3.15;;;;;;;13.69;81.52;99041.94;3549567;40;20873;-78
2021/07/06 04:36:11;;;;;;;6.55;2.80;;;;;;;13.72;81.71;99041.72;3561368;40;20501;-78
2021/07/06 04:38:38;;;;;;;7.15;3.33;;;;;;;13.66;81.21;99036.88;3558100;40;20130;-78
2021/07/06 04:41:07;;;;;;;6.90;3.27;;;;;;;13.73;82.31;99051.28;3568411;40;20068;-79
2021/07/06 04:43:37;;;;;;;6.65;2.83;;;;;;;13.79;81.85;99051.81;3572916;40;25119;-78
2021/07/06 04:46:04;;;;;;;8.68;3.22;;;;;;;13.74;81.79;99047.72;3568037;40;20123;-78
2021/07/06 04:48:35;;;;;;;9.88;2.83;;;;;;;13.81;81.62;99044.72;3559343;40;20056;-78
2021/07/06 04:51:07;;;;;;;7.68;2.70;;;;;;;13.85;82.01;99054.94;3558760;40;20702;-78
2021/07/06 04:53:36;;;;;;;9.55;3.17;;;;;;;13.84;81.54;99047.13;3571820;40;20412;-78
2021/07/06 04:56:04;;;;;;;5.40;2.80;;;;;;;13.90;81.48;99049.41;3560896;40;20143;-78
2021/07/06 04:58:31;;;;;;;6.53;2.65;;;;;;;13.90;81.72;99046.78;3560328;40;20064;-78
2021/07/06 05:01:00;;;;;;;6.83;2.63;;;;;;;13.86;81.11;99032.16;3577445;40;21497;-78
2021/07/06 05:03:33;;;;;;;8.43;2.65;;;;;;;13.96;81.46;99046.38;3551574;40;20045;-78
2021/07/06 05:06:00;;;;;;;7.60;3.40;;;;;;;13.87;81.41;99028.59;3572951;40;20069;-78
2021/07/06 05:08:28;;;;;;;7.50;3.10;;;;;;;13.95;81.41;99047.34;3537038;40;20060;-78
2021/07/06 05:10:56;;;;;;;5.82;2.83;;;;;;;13.98;80.94;99041.88;3555434;40;20069;-78
2021/07/06 05:13:24;;;;;;;7.55;3.08;;;;;;;14.02;81.17;99046.00;3556222;40;20085;-78
2021/07/06 05:15:58;;;;;;;8.10;3.38;;;;;;;14.06;81.36;99044.03;3540378;40;20057;-78
2021/07/06 05:18:29;;;;;;;8.43;2.83;;;;;;;14.08;81.60;99048.22;3542069;40;20111;-78
2021/07/06 05:21:00;;;;;;;8.05;3.05;;;;;;;14.09;81.80;99043.81;3553175;40;20629;-78
2021/07/06 05:23:31;;;;;;;9.32;3.10;;;;;;;14.12;81.82;99041.00;3550008;40;20057;-78
2021/07/06 05:26:02;;;;;;;6.32;3.03;;;;;;;14.13;81.62;99035.66;3547403;40;20111;-78
2021/07/06 05:28:29;;;;;;;12.25;3.38;;;;;;;14.16;81.54;99035.47;3567380;40;20057;-78
2021/07/06 05:30:57;;;;;;;7.18;3.22;;;;;;;14.19;81.56;99030.03;3566140;40;20411;-78
2021/07/06 05:33:25;;;;;;;8.15;2.95;;;;;;;14.23;81.43;99042.00;3580646;40;20112;-78
2021/07/06 05:35:52;;;;;;;6.20;2.53;;;;;;;14.22;81.47;99032.44;3566150;40;20530;-78
2021/07/06 05:38:19;;;;;;;;;;;;;;;14.35;82.31;99047.41;3572810;40;20052;-78
2021/07/06 05:41:02;;;;;;;6.32;2.60;;;;;;;14.33;81.95;99042.25;3556338;40;20539;-78
2021/07/06 05:43:35;;;;;;;8.63;2.78;;;;;;;14.36;81.84;99046.47;3561717;40;20084;-78
2021/07/06 05:46:04;;;;;;;6.68;3.30;;;;;;;14.41;81.77;99052.28;3558804;40;22538;-78
2021/07/06 05:48:33;;;;;;;8.48;3.00;;;;;;;14.41;82.86;99044.41;3576863;40;20053;-78
2021/07/06 05:51:00;;;;;;;7.22;3.10;;;;;;;14.42;82.00;99046.91;3564078;40;20118;-78
2021/07/06 05:53:29;;;;;;;8.98;3.38;;;;;;;14.50;81.88;99043.84;3570687;40;20058;-78
2021/07/06 05:55:57;;;;;;;7.70;3.33;;;;;;;14.58;81.60;99051.19;3568998;40;20052;-78
2021/07/06 05:58:25;;;;;;;8.88;3.55;;;;;;;14.60;81.75;99038.78;3567531;40;20073;-78
2021/07/06 06:00:54;;;;;;;7.65;3.35;;;;;;;14.71;81.55;99042.41;3572597;40;20779;-78
2021/07/06 06:03:23;;;;;;;9.20;3.60;;;;;;;14.77;81.76;99041.16;3566422;40;20052;-78
2021/07/06 06:05:58;;;;;;;6.32;2.83;;;;;;;14.83;82.02;99046.00;3573654;40;20744;-78
2021/07/06 06:08:25;;;;;;;6.90;3.22;;;;;;;14.78;81.76;99032.34;3551728;40;20070;-78
2021/07/06 06:10:52;;;;;;;6.82;3.17;;;;;;;14.82;81.95;99039.06;3560818;40;20131;-78
2021/07/06 06:13:22;;;;;;;5.83;2.60;;;;;;;14.97;81.92;99050.34;3544318;40;20053;-78
2021/07/06 06:15:54;;;;;;;6.38;2.72;;;;;;;15.06;81.87;99047.09;3547176;40;20295;-78
2021/07/06 06:18:21;;;;;;;8.52;2.83;;;;;;;15.02;81.39;99037.75;3565324;40;20060;-78
2021/07/06 06:20:51;;;;;;;7.03;2.80;;;;;;;15.14;81.93;99047.41;3567186;40;20056;-78
2021/07/06 06:23:28;;;;;;;7.25;2.75;;;;;;;15.27;82.57;99050.06;3566110;40;20142;-78
2021/07/06 06:25:56;;;;;;;7.80;2.70;;;;;;;15.30;82.00;99049.84;3562073;40;20738;-78
2021/07/06 06:28:24;;;;;;;8.60;2.60;;;;;;;15.38;81.45;99047.53;3558978;40;20060;-78
2021/07/06 06:30:51;;;;;;;9.82;2.97;;;;;;;15.43;80.99;99045.44;3564584;40;20089;-78
2021/07/06 06:33:20;;;;;;;6.25;2.70;;;;;;;15.49;81.55;99044.16;3567563;40;20054;-78
2021/07/06 06:35:49;;;;;;;6.72;2.90;;;;;;;15.53;81.62;99046.47;3562204;40;20508;-78
2021/07/06 06:38:16;;;;;;;7.00;2.47;;;;;;;15.61;80.94;99047.72;3580502;40;20104;-78
2021/07/06 06:40:51;;;;;;;6.43;2.87;;;;;;;15.76;81.95;99052.81;3581802;40;20049;-78
2021/07/06 06:43:23;;;;;;;6.72;3.00;;;;;;;15.86;81.81;99063.50;3576018;40;20057;-78
2021/07/06 06:45:57;;;;;;;6.35;2.75;;;;;;;15.94;81.36;99053.28;3575386;40;20049;-78
2021/07/06 06:48:26;;;;;;;6.90;2.90;;;;;;;15.98;80.56;99046.00;3567614;40;20702;-78
2021/07/06 06:50:52;;;;;;;7.30;2.58;;;;;;;16.02;79.72;99042.22;3560481;40;20136;-78
2021/07/06 06:53:23;;;;;;;6.13;2.63;;;;;;;16.20;79.82;99061.94;3571764;40;20049;-78
2021/07/06 06:55:51;;;;;;;5.90;2.20;;;;;;;16.25;78.63;99065.09;3571211;40;20433;-79
2021/07/06 06:58:19;;;;;;;;;;;;;;;16.39;84.06;99063.25;3565894;40;20494;-77
2021/07/06 07:00:47;;;;;;;5.03;2.30;;;;;;;16.44;78.60;99063.75;3569857;40;19944;-78
2021/07/06 07:03:19;;;;;;;8.18;3.15;;;;;;;16.56;79.93;99068.13;3564281;40;20042;-78
2021/07/06 07:06:13;;;;;;;10.30;2.53;;;;;;;16.69;81.84;99068.91;3564951;40;20698;-78
2021/07/06 07:08:40;;;;;;;5.82;2.63;;;;;;;16.61;78.08;99066.00;3563845;40;20087;-77
2021/07/06 07:11:09;;;;;;;7.05;2.63;;;;;;;16.81;77.82;99072.47;3574981;40;20436;-77
2021/07/06 07:13:48;;;;;;;5.13;2.15;;;;;;;16.85;79.54;99064.22;3562572;40;20920;-79
2021/07/06 07:16:16;;;;;;;5.47;1.90;;;;;;;16.90;75.87;99065.66;3567561;40;20081;-79
2021/07/06 07:18:45;;;;;;;5.13;2.00;;;;;;;16.85;76.04;99048.38;3570038;40;20072;-79
2021/07/06 07:21:12;;;;;;;6.15;2.28;;;;;;;16.94;75.54;99061.84;3575727;40;20076;-79
2021/07/06 07:23:46;;;;;;;4.97;2.25;;;;;;;17.00;78.03;99064.84;3564269;40;20398;-79
2021/07/06 07:26:16;;;;;;;4.53;1.38;;;;;;;17.00;77.56;99061.38;3564360;40;20163;-78
2021/07/06 07:28:48;;;;;;;3.65;1.48;;;;;;;17.01;76.78;99063.91;3576153;40;20049;-79
2021/07/06 07:31:17;;;;;;;4.38;1.60;;;;;;;17.10;76.53;99070.28;3562106;40;20094;-79
2021/07/06 07:33:47;;;;;;;2.85;1.20;;;;;;;17.11;76.79;99067.53;3573958;40;20052;-79
2021/07/06 07:36:14;;;;;;;3.17;1.30;;;;;;;17.17;75.42;99073.28;3570200;40;20421;-79
2021/07/06 07:38:43;;;;;;;;;;;;;;;17.28;81.34;99070.66;3578167;40;20107;-79
2021/07/06 07:41:11;;;;;;;2.40;1.10;;;;;;;17.22;75.26;99074.63;3579801;40;19947;-79
2021/07/06 07:43:40;;;;;;;2.05;1.20;;;;;;;17.32;74.01;99078.22;3570363;40;20053;-79
2021/07/06 07:46:07;;;;;;;1.83;1.10;;;;;;;17.25;73.20;99069.13;3562976;40;20057;-79
2021/07/06 07:48:35;;;;;;;2.80;1.40;;;;;;;17.32;74.08;99067.69;3564698;40;20158;-78
2021/07/06 07:51:01;;;;;;;2.58;1.45;;;;;;;17.39;73.43;99078.63;3576015;40;20323;-79
2021/07/06 07:53:29;;;;;;;2.42;1.40;;;;;;;17.48;74.11;99082.34;3572724;40;20053;-78
2021/07/06 07:55:58;;;;;;;2.38;1.08;;;;;;;17.54;74.21;99079.25;3566532;40;20072;-79
2021/07/06 07:58:26;;;;;;;2.78;1.17;;;;;;;17.61;74.19;99091.00;3578551;40;20049;-79
2021/07/06 08:00:58;;;;;;;;;;;;;;;17.78;81.88;99095.81;3568074;40;20060;-79
2021/07/06 08:03:25;;;;;;;2.45;1.23;;;;;;;17.68;73.98;99079.00;3563925;40;20294;-79
2021/07/06 08:05:52;;;;;;;2.85;1.38;;;;;;;17.74;74.69;99083.84;3577644;40;20079;-79
2021/07/06 08:08:20;;;;;;;4.00;1.70;;;;;;;17.78;73.70;99089.72;3564824;40;20063;-79
2021/07/06 08:10:51;;;;;;;3.10;1.33;;;;;;;17.74;72.82;99078.56;3575314;40;20073;-79
2021/07/06 08:13:22;;;;;;;2.00;1.20;;;;;;;17.93;74.65;99100.88;3567789;40;24642;-79
2021/07/06 08:16:14;;;;;;;1.88;1.05;;;;;;;18.02;78.90;99102.78;3564455;40;20049;-80
2021/07/06 08:18:42;;;;;;;2.95;1.35;;;;;;;17.98;73.26;99096.06;3571269;40;20044;-79
2021/07/06 08:21:09;;;;;;;2.53;1.33;;;;;;;17.98;72.94;99096.91;3570971;40;20057;-79
2021/07/06 08:23:36;;;;;;;3.55;1.25;;;;;;;17.99;73.48;99082.75;3564926;40;20061;-79
2021/07/06 08:26:05;;;;;;;3.20;1.23;;;;;;;18.08;74.16;99083.81;3554877;40;20046;-79
2021/07/06 08:28:32;;;;;;;3.97;1.10;;;;;;;18.17;72.86;99085.72;3569349;40;20099;-79
2021/07/06 08:31:00;;;;;;;2.50;1.40;;;;;;;18.31;73.92;99087.28;3552409;40;20491;-79
2021/07/06 08:33:29;;;;;;;3.42;1.30;;;;;;;18.40;72.44;99092.66;3558002;40;20086;-79
2021/07/06 08:35:56;;;;;;;2.28;1.15;;;;;;;18.45;73.32;99084.38;3571219;40;20148;-79
2021/07/06 08:38:23;;;;;;;3.67;1.10;;;;;;;18.53;72.06;99091.66;3575798;40;20085;-79
2021/07/06 08:40:51;;;;;;;3.53;1.57;;;;;;;18.63;72.83;99092.59;3574325;40;20089;-79
2021/07/06 08:43:18;;;;;;;4.22;1.30;;;;;;;18.71;72.89;99106.06;3574493;40;20472;-79
2021/07/06 08:45:46;;;;;;;3.00;1.02;;;;;;;18.79;70.76;99103.63;3570222;40;20084;-79
2021/07/06 08:48:15;;;;;;;2.58;1.15;;;;;;;18.91;72.84;99101.78;3576543;40;20068;-79
2021/07/06 08:50:45;;;;;;;2.67;1.13;;;;;;;19.02;71.70;99108.84;3566922;40;20072;-79
2021/07/06 08:53:17;;;;;;;2.30;1.02;;;;;;;19.10;73.25;99095.78;3571334;40;20104;-79
2021/07/06 08:55:44;;;;;;;1.52;0.95;;;;;;;19.06;70.23;99087.28;3578328;40;20103;-79
2021/07/06 08:58:18;;;;;;;2.97;1.20;;;;;;;19.23;73.03;99091.16;3575923;40;20057;-79
2021/07/06 09:00:45;;;;;;;6.88;1.30;;;;;;;19.21;69.11;99087.81;3561836;40;20093;-79
2021/07/06 09:03:16;;;;;;;2.63;1.10;;;;;;;19.30;71.88;99089.66;3567811;40;20487;-79
2021/07/06 09:05:45;;;;;;;2.65;0.93;;;;;;;19.35;70.50;99090.09;3574491;40;20104;-79
2021/07/06 09:08:16;;;;;;;2.33;1.10;;;;;;;19.45;70.72;99091.00;3563227;40;20454;-79
2021/07/06 09:10:45;;;;;;;4.10;1.35;;;;;;;19.45;70.72;99091.00;3578009;40;20045;-79
2021/07/06 09:13:32;;;;;;;2.40;0.90;;;;;;;19.53;73.98;99092.19;3572022;40;20107;-79
2021/07/06 09:16:05;;;;;;;1.85;0.90;;;;;;;19.55;71.47;99095.53;3565229;40;20115;-79
2021/07/06 09:18:33;;;;;;;2.47;1.10;;;;;;;19.49;68.28;99096.06;3566258;40;20135;-79
2021/07/06 09:21:12;;;;;;;2.33;1.00;;;;;;;19.39;73.40;99086.25;3576159;40;20052;-79
2021/07/06 09:23:49;;;;;;;4.13;0.98;;;;;;;19.42;69.84;99101.03;3564611;40;20090;-79
2021/07/06 09:26:25;;;;;;;1.42;0.75;;;;;;;19.33;67.72;99102.66;3559456;40;20107;-79
2021/07/06 09:28:55;;;;;;;1.15;0.60;;;;;;;19.28;68.88;99102.19;3562918;40;20061;-79
2021/07/06 09:31:25;;;;;;;0.65;0.35;;;;;;;19.24;69.22;99102.56;3566242;40;20057;-79
2021/07/06 09:33:53;;;;;;;1.27;0.50;;;;;;;19.20;69.86;99099.34;3553241;40;20469;-79
2021/07/06 09:36:36;;;;;;;1.00;0.60;;;;;;;19.25;72.48;99105.09;3577297;40;20060;-79
2021/07/06 09:39:07;;;;;;;0.88;0.47;;;;;;;19.28;72.07;99104.84;3564916;40;20057;-79
2021/07/06 09:41:36;;;;;;;2.08;0.85;;;;;;;19.25;69.89;99099.78;3568959;40;20065;-79
2021/07/06 09:44:34;;;;;;;1.23;0.57;;;;;;;19.37;74.69;99104.06;3577222;40;20053;-79
2021/07/06 09:47:17;;;;;;;0.45;0.40;;;;;;;19.39;74.10;99096.81;3571975;40;20069;-79
2021/07/06 09:49:55;;;;;;;2.08;0.63;;;;;;;19.44;73.62;99099.09;3564898;40;20146;-79
2021/07/06 09:52:22;;;;;;;1.50;0.40;;;;;;;19.41;68.63;99100.19;3569988;40;20065;-78
2021/07/06 09:54:52;;;;;;;0.77;0.40;;;;;;;19.51;70.26;99104.69;3575411;40;20499;-79
2021/07/06 10:00:10;;;;;;;0.65;0.30;;;;;;;19.60;74.31;99098.66;3566838;40;20439;-79
2021/07/06 10:02:44;;;;;;;0.75;0.30;;;;;;;19.62;68.73;99107.31;3563009;40;20060;-78
2021/07/06 10:05:20;;;;;;;0.50;0.30;;;;;;;19.64;71.50;99100.06;3565942;40;20054;-79
2021/07/06 10:07:47;;;;;;;0.68;0.30;;;;;;;19.62;68.70;99096.72;3557081;40;20626;-79
2021/07/06 10:10:15;;;;;;;0.77;0.47;;;;;;;19.70;68.98;99096.88;3573620;40;20041;-79
2021/07/06 10:12:49;;;;;;;0.70;0.30;;;;;;;19.80;70.79;99104.88;3553653;40;20273;-80
2021/07/06 10:15:30;;;;;;;0.85;0.60;;;;;;;19.83;71.77;99102.81;3569269;40;20056;-79
2021/07/06 10:18:01;;;;;;;0.40;0.30;;;;;;;19.87;70.42;99104.22;3572927;40;20531;-79
2021/07/06 10:20:37;;;;;;;0.90;0.50;;;;;;;19.90;71.02;99111.91;3568408;40;20086;-78
2021/07/06 10:23:10;;;;;;;1.23;0.45;;;;;;;19.89;69.98;99107.56;3562773;40;20072;-78
2021/07/06 10:25:37;;;;;;;0.90;0.40;;;;;;;19.86;66.36;99113.13;3570433;40;20820;-79
2021/07/06 10:28:16;;;;;;;0.98;0.40;;;;;;;19.96;70.48;99116.66;3569155;40;20068;-79
2021/07/06 10:30:47;;;;;;;0.45;0.40;;;;;;;19.93;68.09;99118.75;3559124;40;20053;-79
2021/07/06 10:33:29;;;;;;;2.38;0.40;;;;;;;19.93;71.63;99122.25;3570793;40;20122;-79
2021/07/06 10:35:58;;;;;;;0.60;0.35;;;;;;;19.88;68.18;99118.31;3562076;40;20068;-79
2021/07/06 10:38:40;;;;;;;0.30;0.30;;;;;;;19.86;68.40;99120.25;3571520;40;20410;-78
2021/07/06 10:41:19;;;;;;;1.10;0.40;;;;;;;19.87;70.40;99127.22;3560709;40;20053;-79
2021/07/06 10:43:56;;;;;;;1.27;0.55;;;;;;;19.85;70.95;99115.91;3566053;40;20122;-79
2021/07/06 10:46:29;;;;;;;0.52;0.32;;;;;;;19.83;68.82;99121.34;3561398;40;20072;-79
2021/07/06 10:49:10;;;;;;;1.10;0.50;;;;;;;19.84;72.54;99112.44;3582099;40;20077;-79
2021/07/06 10:51:37;;;;;;;1.15;0.50;;;;;;;19.87;68.00;99122.78;3569939;40;20068;-79
2021/07/06 10:54:04;;;;;;;0.77;0.50;;;;;;;19.93;68.31;99121.41;3568908;40;20097;-79
2021/07/06 10:56:53;;;;;;;0.47;0.40;;;;;;;20.04;71.64;99123.13;3077039;40;10001501;-79
2021/07/06 10:59:23;;;;;;;0.60;0.50;;;;;;;20.08;68.93;99129.84;2210111;40;10001959;-79
2021/07/06 11:01:51;;;;;;;0.77;0.38;;;;;;;20.14;69.69;99124.00;3555481;40;20077;-79
2021/07/06 11:04:47;;;;;;;0.77;0.57;;;;;;;20.28;72.57;99136.06;3569237;40;20061;-79
2021/07/06 11:07:37;;;;;;;0.45;0.45;;;;;;;20.25;68.89;99131.84;3565831;40;20066;-79
2021/07/06 11:10:14;;;;;;;0.90;0.50;;;;;;;20.27;71.32;99135.19;3546785;40;20053;-79
2021/07/06 11:12:47;;;;;;;1.50;0.60;;;;;;;20.30;71.18;99145.53;3561614;40;21013;-79
2021/07/06 11:15:24;;;;;;;0.82;0.50;;;;;;;20.30;69.38;99134.94;3557953;40;20056;-79
2021/07/06 11:18:01;;;;;;;3.15;0.80;;;;;;;20.35;71.90;99138.00;3561054;40;20082;-79
2021/07/06 11:20:41;;;;;;;0.50;0.40;;;;;;;20.39;70.85;99144.72;3559051;40;20065;-79
2021/07/06 11:23:18;;;;;;;0.43;0.43;;;;;;;20.37;71.81;99136.03;3572487;40;20068;-79
2021/07/06 11:25:47;;;;;;;1.52;0.70;;;;;;;20.29;70.39;99143.84;3558569;40;20065;-79
2021/07/06 11:28:25;;;;;;;0.65;0.50;;;;;;;20.31;71.91;99141.91;3564590;40;20163;-79
2021/07/06 11:30:56;;;;;;;1.33;0.70;;;;;;;20.25;68.61;99134.50;3571739;40;20080;-78
2021/07/06 11:33:35;;;;;;;1.60;0.65;;;;;;;20.36;70.90;99155.59;3569895;40;20572;-79
2021/07/06 11:36:28;;;;;;;1.48;0.68;;;;;;;20.38;72.46;99147.53;3555530;40;20399;-79
2021/07/06 11:39:00;;;;;;;0.60;0.50;;;;;;;20.30;70.01;99145.53;3550156;40;20801;-79
2021/07/06 11:41:28;;;;;;;0.60;0.50;;;;;;;20.32;69.86;99154.16;3562994;40;20085;-79
2021/07/06 11:43:58;;;;;;;1.40;0.50;;;;;;;20.30;70.28;99145.53;3571551;40;20433;-79
2021/07/06 11:46:27;;;;;;;1.17;0.60;;;;;;;20.25;69.07;99149.56;3562847;40;20114;-79
2021/07/06 11:48:54;;;;;;;1.27;0.90;;;;;;;20.21;69.17;99151.63;3564031;40;20060;-79
2021/07/06 11:51:27;;;;;;;1.38;0.70;;;;;;;20.25;71.02;99153.03;3545489;40;20053;-79
2021/07/06 11:54:01;;;;;;;0.93;0.70;;;;;;;20.27;71.03;99167.00;3563278;40;20063;-79